Wetterdaten: Woche 16.11.15 - 22.11.15 (KW47)
Datum Zeit Temp. A. Feuchte A. Luftdruck Regen Wind Richtung Sonnenschein ET UV Solar Taupunkt Windchill Windben Empfang
16.11.2015 00:00 14,0 C 65 % 1016,1 hPa 0,0 l/m 3,1 km/h (1 Bft) W 0,00 h 0,000 mm 0,0 UV-I 0 W/m 7,5 C 14,0 C 10,2 km/h (2 Bft) 99,35 %
16.11.2015 01:00 11,8 C 82 % 1016,3 hPa 0,2 l/m 1,1 km/h (1 Bft) W 0,00 h 0,025 mm 0,0 UV-I 0 W/m 8,7 C 11,8 C 4,0 km/h (1 Bft) 99,01 %
16.11.2015 02:00 12,1 C 78 % 1016,4 hPa 0,0 l/m 2,0 km/h (1 Bft) W 0,00 h 0,000 mm 0,0 UV-I 0 W/m 8,4 C 12,1 C 4,8 km/h (1 Bft) 99,14 %
16.11.2015 03:00 13,6 C 66 % 1016,1 hPa 0,0 l/m 8,2 km/h (2 Bft) W 0,00 h 0,000 mm 0,0 UV-I 0 W/m 7,3 C 12,5 C 16,0 km/h (3 Bft) 99,31 %
16.11.2015 04:00 13,5 C 66 % 1016,3 hPa 0,0 l/m 6,9 km/h (2 Bft) W 0,00 h 0,051 mm 0,0 UV-I 0 W/m 7,1 C 13,1 C 14,2 km/h (3 Bft) 99,14 %
16.11.2015 05:00 12,4 C 70 % 1016,4 hPa 0,0 l/m 4,1 km/h (1 Bft) W 0,00 h 0,026 mm 0,0 UV-I 0 W/m 7,0 C 12,3 C 9,7 km/h (2 Bft) 98,64 %
16.11.2015 06:00 11,5 C 72 % 1016,8 hPa 0,0 l/m 4,4 km/h (1 Bft) W 0,00 h 0,025 mm 0,0 UV-I 0 W/m 6,7 C 11,5 C 8,7 km/h (2 Bft) 98,79 %
16.11.2015 07:00 11,1 C 74 % 1017,2 hPa 0,0 l/m 5,6 km/h (1 Bft) W 0,00 h 0,025 mm 0,0 UV-I 8 W/m 6,6 C 10,8 C 10,7 km/h (2 Bft) 98,74 %
16.11.2015 08:00 11,7 C 73 % 1017,5 hPa 0,0 l/m 4,7 km/h (1 Bft) W-NW 0,25 h 0,026 mm 0,0 UV-I 84 W/m 7,1 C 11,7 C 10,6 km/h (2 Bft) 99,00 %
16.11.2015 09:00 12,5 C 73 % 1017,7 hPa 0,0 l/m 1,6 km/h (1 Bft) W-NW 1,00 h 0,051 mm 0,5 UV-I 221 W/m 7,8 C 12,5 C 4,3 km/h (1 Bft) 98,81 %
16.11.2015 10:00 13,5 C 72 % 1017,6 hPa 0,0 l/m 1,4 km/h (1 Bft) W 1,00 h 0,127 mm 1,0 UV-I 329 W/m 8,6 C 13,5 C 3,7 km/h (1 Bft) 99,36 %
16.11.2015 11:00 14,5 C 72 % 1017,1 hPa 0,0 l/m 1,5 km/h (1 Bft) N-NW 1,00 h 0,177 mm 1,1 UV-I 312 W/m 9,4 C 14,5 C 4,5 km/h (1 Bft) 99,27 %
16.11.2015 12:00 15,7 C 69 % 1016,6 hPa 0,0 l/m 2,3 km/h (1 Bft) N 1,00 h 0,178 mm 1,1 UV-I 311 W/m 10,0 C 15,7 C 5,6 km/h (1 Bft) 99,23 %
16.11.2015 13:00 16,3 C 65 % 1015,9 hPa 0,0 l/m 1,7 km/h (1 Bft) N 1,00 h 0,178 mm 0,8 UV-I 259 W/m 9,8 C 16,3 C 4,7 km/h (1 Bft) 98,91 %
16.11.2015 14:00 16,4 C 64 % 1015,5 hPa 0,0 l/m 0,6 km/h (0 Bft) NW 0,83 h 0,152 mm 0,5 UV-I 155 W/m 9,6 C 16,4 C 2,4 km/h (1 Bft) 98,73 %
16.11.2015 15:00 14,9 C 72 % 1015,3 hPa 0,0 l/m 0,4 km/h (0 Bft) NW 0,08 h 0,077 mm 0,0 UV-I 54 W/m 9,9 C 14,9 C 1,5 km/h (1 Bft) 99,01 %
16.11.2015 16:00 12,1 C 83 % 1015,1 hPa 0,0 l/m 0,8 km/h (0 Bft) SO 0,08 h 0,025 mm 0,0 UV-I 11 W/m 9,4 C 12,1 C 2,0 km/h (1 Bft) 99,43 %
16.11.2015 17:00 10,6 C 87 % 1015,1 hPa 0,0 l/m 0,4 km/h (0 Bft) SO 0,00 h 0,000 mm 0,0 UV-I 0 W/m 8,6 C 10,6 C 1,7 km/h (1 Bft) 99,23 %
16.11.2015 18:00 9,5 C 91 % 1015,3 hPa 0,0 l/m 0,7 km/h (0 Bft) S 0,00 h 0,000 mm 0,0 UV-I 0 W/m 8,1 C 9,5 C 2,1 km/h (1 Bft) 99,23 %
16.11.2015 19:00 9,9 C 88 % 1015,5 hPa 0,0 l/m 1,9 km/h (1 Bft) S 0,00 h 0,000 mm 0,0 UV-I 0 W/m 7,9 C 9,9 C 3,9 km/h (1 Bft) 96,44 %
16.11.2015 20:00 10,3 C 82 % 1015,8 hPa 0,0 l/m 2,4 km/h (1 Bft) S-SW 0,00 h 0,000 mm 0,0 UV-I 0 W/m 7,3 C 10,3 C 4,5 km/h (1 Bft) 98,78 %
16.11.2015 21:00 11,1 C 75 % 1016,2 hPa 0,0 l/m 3,6 km/h (1 Bft) SW 0,00 h 0,000 mm 0,0 UV-I 0 W/m 6,9 C 11,1 C 7,8 km/h (2 Bft) 97,72 %
16.11.2015 22:00 10,9 C 75 % 1016,5 hPa 0,0 l/m 2,5 km/h (1 Bft) SW 0,00 h 0,025 mm 0,0 UV-I 0 W/m 6,6 C 10,9 C 4,8 km/h (1 Bft) 99,15 %
16.11.2015 23:00 10,3 C 76 % 1016,9 hPa 0,0 l/m 2,0 km/h (1 Bft) W-SW 0,00 h 0,000 mm 0,0 UV-I 0 W/m 6,3 C 10,3 C 4,1 km/h (1 Bft) 99,01 %
17.11.2015 00:00 9,2 C 79 % 1017,1 hPa 0,0 l/m 1,4 km/h (1 Bft) S-SW 0,00 h 0,000 mm 0,0 UV-I 0 W/m 5,7 C 9,2 C 3,6 km/h (1 Bft) 98,97 %
17.11.2015 01:00 9,3 C 77 % 1017,1 hPa 0,0 l/m 1,7 km/h (1 Bft) W 0,00 h 0,000 mm 0,0 UV-I 0 W/m 5,5 C 9,3 C 3,7 km/h (1 Bft) 99,09 %
17.11.2015 02:00 9,5 C 75 % 1017,3 hPa 0,0 l/m 0,8 km/h (0 Bft) W 0,00 h 0,000 mm 0,0 UV-I 0 W/m 5,4 C 9,5 C 2,9 km/h (1 Bft) 99,34 %
17.11.2015 03:00 7,5 C 83 % 1017,1 hPa 0,0 l/m 0,8 km/h (0 Bft) S-SO 0,00 h 0,000 mm 0,0 UV-I 0 W/m 4,7 C 7,5 C 2,4 km/h (1 Bft) 99,28 %
17.11.2015 04:00 6,8 C 85 % 1016,8 hPa 0,0 l/m 1,1 km/h (0 Bft) SO 0,00 h 0,000 mm 0,0 UV-I 0 W/m 4,5 C 6,8 C 2,8 km/h (1 Bft) 99,13 %
17.11.2015 05:00 5,9 C 89 % 1016,5 hPa 0,0 l/m 0,8 km/h (0 Bft) SO 0,00 h 0,000 mm 0,0 UV-I 0 W/m 4,2 C 5,9 C 2,5 km/h (1 Bft) 99,15 %
17.11.2015 06:00 6,0 C 88 % 1016,3 hPa 0,0 l/m 0,5 km/h (0 Bft) S-SW 0,00 h 0,000 mm 0,0 UV-I 0 W/m 4,2 C 6,0 C 1,9 km/h (1 Bft) 99,08 %
17.11.2015 07:00 6,4 C 85 % 1016,2 hPa 0,0 l/m 0,4 km/h (0 Bft) S-SW 0,00 h 0,000 mm 0,0 UV-I 12 W/m 4,1 C 6,4 C 1,6 km/h (1 Bft) 99,36 %
17.11.2015 08:00 6,2 C 86 % 1016,4 hPa 0,0 l/m 0,4 km/h (0 Bft) S 0,17 h 0,000 mm 0,0 UV-I 59 W/m 4,1 C 6,2 C 1,7 km/h (1 Bft) 98,99 %
17.11.2015 09:00 8,4 C 82 % 1016,9 hPa 0,0 l/m 2,6 km/h (1 Bft) S-SW 0,33 h 0,025 mm 0,6 UV-I 122 W/m 5,6 C 8,4 C 5,6 km/h (1 Bft) 99,05 %
17.11.2015 10:00 11,3 C 74 % 1017,0 hPa 0,0 l/m 7,2 km/h (2 Bft) SW 0,33 h 0,077 mm 0,6 UV-I 198 W/m 6,8 C 10,4 C 13,2 km/h (3 Bft) 99,15 %
17.11.2015 11:00 12,1 C 70 % 1016,1 hPa 0,0 l/m 3,7 km/h (1 Bft) W 0,00 h 0,101 mm 0,5 UV-I 123 W/m 6,9 C 12,1 C 9,0 km/h (2 Bft) 99,50 %
17.11.2015 12:00 13,4 C 67 % 1015,7 hPa 0,0 l/m 4,4 km/h (1 Bft) W 0,08 h 0,076 mm 0,7 UV-I 150 W/m 7,3 C 13,3 C 9,8 km/h (2 Bft) 99,15 %
17.11.2015 13:00 11,7 C 80 % 1015,5 hPa 0,0 l/m 1,3 km/h (1 Bft) O 0,00 h 0,102 mm 0,0 UV-I 69 W/m 8,3 C 11,7 C 3,9 km/h (1 Bft) 98,79 %
17.11.2015 14:00 12,9 C 72 % 1015,6 hPa 0,2 l/m 10,4 km/h (2 Bft) W-SW 0,00 h 0,025 mm 0,0 UV-I 39 W/m 8,0 C 10,4 C 22,0 km/h (4 Bft) 99,34 %
17.11.2015 15:00 13,2 C 72 % 1015,6 hPa 0,2 l/m 13,0 km/h (3 Bft) W-SW 0,00 h 0,051 mm 0,0 UV-I 15 W/m 8,3 C 9,8 C 29,4 km/h (5 Bft) 99,29 %
17.11.2015 16:00 12,6 C 78 % 1015,6 hPa 0,0 l/m 15,7 km/h (3 Bft) SW 0,00 h 0,051 mm 0,0 UV-I 5 W/m 9,0 C 8,1 C 29,6 km/h (5 Bft) 99,49 %
17.11.2015 17:00 12,4 C 80 % 1015,4 hPa 0,0 l/m 13,4 km/h (3 Bft) S-SW 0,00 h 0,051 mm 0,0 UV-I 0 W/m 9,1 C 8,7 C 26,7 km/h (4 Bft) 99,02 %
17.11.2015 18:00 12,8 C 79 % 1015,6 hPa 0,0 l/m 6,9 km/h (2 Bft) S-SW 0,00 h 0,025 mm 0,0 UV-I 0 W/m 9,2 C 12,4 C 14,6 km/h (3 Bft) 99,73 %
17.11.2015 19:00 13,3 C 75 % 1015,4 hPa 0,0 l/m 9,4 km/h (2 Bft) SW 0,00 h 0,026 mm 0,0 UV-I 0 W/m 8,8 C 11,6 C 17,8 km/h (3 Bft) 99,16 %
17.11.2015 20:00 13,4 C 73 % 1015,5 hPa 0,0 l/m 9,9 km/h (2 Bft) SW 0,00 h 0,025 mm 0,0 UV-I 0 W/m 8,7 C 11,4 C 18,8 km/h (3 Bft) 99,08 %
17.11.2015 21:00 13,8 C 73 % 1015,6 hPa 0,0 l/m 9,5 km/h (2 Bft) SW 0,00 h 0,025 mm 0,0 UV-I 0 W/m 9,1 C 12,0 C 17,6 km/h (3 Bft) 99,14 %
17.11.2015 22:00 12,9 C 77 % 1015,2 hPa 0,0 l/m 5,0 km/h (1 Bft) S-SW 0,00 h 0,026 mm 0,0 UV-I 0 W/m 9,0 C 12,7 C 11,1 km/h (2 Bft) 99,01 %
17.11.2015 23:00 12,2 C 79 % 1014,5 hPa 0,0 l/m 1,9 km/h (1 Bft) S-SW 0,00 h 0,025 mm 0,0 UV-I 0 W/m 8,6 C 12,2 C 4,1 km/h (1 Bft) 99,34 %
18.11.2015 00:00 11,6 C 81 % 1014,4 hPa 0,0 l/m 2,3 km/h (1 Bft) S 0,00 h 0,000 mm 0,0 UV-I 0 W/m 8,4 C 11,6 C 5,3 km/h (1 Bft) 99,42 %
18.11.2015 01:00 12,1 C 78 % 1013,4 hPa 0,0 l/m 4,5 km/h (1 Bft) S-SW 0,00 h 0,000 mm 0,0 UV-I 0 W/m 8,4 C 12,1 C 8,4 km/h (2 Bft) 99,00 %
18.11.2015 02:00 12,4 C 75 % 1013,0 hPa 0,0 l/m 2,3 km/h (1 Bft) W-SW 0,00 h 0,025 mm 0,0 UV-I 0 W/m 8,2 C 12,4 C 5,5 km/h (1 Bft) 99,72 %
18.11.2015 03:00 13,0 C 74 % 1012,8 hPa 0,0 l/m 5,0 km/h (1 Bft) W-NW 0,00 h 0,000 mm 0,0 UV-I 0 W/m 8,5 C 13,0 C 11,4 km/h (2 Bft) 99,13 %
18.11.2015 04:00 14,2 C 69 % 1012,6 hPa 0,0 l/m 6,3 km/h (2 Bft) W 0,00 h 0,026 mm 0,0 UV-I 0 W/m 8,6 C 14,0 C 13,0 km/h (3 Bft) 99,50 %
18.11.2015 05:00 15,2 C 66 % 1012,8 hPa 0,0 l/m 11,0 km/h (2 Bft) W 0,00 h 0,025 mm 0,0 UV-I 0 W/m 9,0 C 13,0 C 22,9 km/h (4 Bft) 99,24 %
18.11.2015 06:00 15,8 C 66 % 1013,3 hPa 0,0 l/m 16,7 km/h (3 Bft) W 0,00 h 0,051 mm 0,0 UV-I 0 W/m 9,5 C 11,7 C 31,4 km/h (5 Bft) 99,58 %
18.11.2015 07:00 15,4 C 67 % 1013,9 hPa 0,0 l/m 14,2 km/h (3 Bft) W 0,00 h 0,076 mm 0,0 UV-I 12 W/m 9,3 C 12,0 C 28,6 km/h (4 Bft) 99,50 %
18.11.2015 08:00 15,5 C 67 % 1014,8 hPa 0,0 l/m 11,9 km/h (2 Bft) W 0,58 h 0,076 mm 0,0 UV-I 98 W/m 9,3 C 12,8 C 22,8 km/h (4 Bft) 99,38 %
18.11.2015 09:00 16,1 C 64 % 1015,6 hPa 0,0 l/m 13,1 km/h (3 Bft) W 1,00 h 0,102 mm 0,6 UV-I 233 W/m 9,3 C 13,1 C 25,2 km/h (4 Bft) 99,46 %
18.11.2015 10:00 16,6 C 59 % 1016,6 hPa 0,0 l/m 17,0 km/h (3 Bft) W-SW 1,00 h 0,178 mm 0,9 UV-I 345 W/m 8,5 C 12,6 C 33,5 km/h (5 Bft) 99,24 %
18.11.2015 11:00 16,6 C 54 % 1016,9 hPa 0,0 l/m 18,9 km/h (3 Bft) W 1,00 h 0,254 mm 1,2 UV-I 368 W/m 7,2 C 12,1 C 36,6 km/h (5 Bft) 99,36 %
18.11.2015 12:00 16,7 C 55 % 1016,9 hPa 0,0 l/m 17,9 km/h (3 Bft) W-NW 1,00 h 0,305 mm 1,1 UV-I 362 W/m 7,5 C 12,5 C 35,3 km/h (5 Bft) 99,58 %
18.11.2015 13:00 16,8 C 55 % 1017,1 hPa 0,0 l/m 14,8 km/h (3 Bft) W 1,00 h 0,279 mm 0,8 UV-I 313 W/m 7,8 C 13,5 C 28,6 km/h (4 Bft) 99,31 %
18.11.2015 14:00 16,9 C 54 % 1017,3 hPa 0,0 l/m 11,2 km/h (2 Bft) W 1,00 h 0,254 mm 0,5 UV-I 204 W/m 7,6 C 14,7 C 22,2 km/h (4 Bft) 99,50 %
18.11.2015 15:00 16,3 C 54 % 1017,4 hPa 0,0 l/m 11,3 km/h (2 Bft) W 0,67 h 0,178 mm 0,0 UV-I 70 W/m 6,9 C 14,1 C 21,7 km/h (4 Bft) 99,42 %
18.11.2015 16:00 14,8 C 57 % 1017,3 hPa 0,0 l/m 8,5 km/h (2 Bft) W 0,08 h 0,101 mm 0,0 UV-I 9 W/m 6,4 C 13,6 C 15,3 km/h (3 Bft) 99,37 %
18.11.2015 17:00 13,6 C 61 % 1017,5 hPa 0,0 l/m 8,0 km/h (2 Bft) W 0,00 h 0,051 mm 0,0 UV-I 0 W/m 6,2 C 12,7 C 14,1 km/h (3 Bft) 99,39 %
18.11.2015 18:00 12,6 C 65 % 1018,0 hPa 0,0 l/m 6,8 km/h (2 Bft) W 0,00 h 0,051 mm 0,0 UV-I 0 W/m 6,2 C 12,2 C 14,4 km/h (3 Bft) 98,64 %
18.11.2015 19:00 12,4 C 67 % 1018,4 hPa 0,0 l/m 8,9 km/h (2 Bft) SW 0,00 h 0,025 mm 0,0 UV-I 0 W/m 6,3 C 10,8 C 16,2 km/h (3 Bft) 99,34 %
18.11.2015 20:00 11,8 C 68 % 1018,2 hPa 0,0 l/m 5,4 km/h (1 Bft) W-SW 0,00 h 0,026 mm 0,0 UV-I 0 W/m 6,0 C 11,7 C 11,3 km/h (2 Bft) 99,49 %
18.11.2015 21:00 11,4 C 67 % 1018,3 hPa 0,0 l/m 5,5 km/h (1 Bft) SW 0,00 h 0,025 mm 0,0 UV-I 0 W/m 5,5 C 11,2 C 11,6 km/h (2 Bft) 99,72 %
18.11.2015 22:00 11,1 C 68 % 1018,2 hPa 0,0 l/m 6,9 km/h (2 Bft) SW 0,00 h 0,026 mm 0,0 UV-I 0 W/m 5,4 C 10,5 C 13,2 km/h (3 Bft) 99,22 %
18.11.2015 23:00 10,7 C 69 % 1018,2 hPa 0,0 l/m 4,4 km/h (1 Bft) SW 0,00 h 0,025 mm 0,0 UV-I 0 W/m 5,3 C 10,7 C 10,3 km/h (2 Bft) 98,85 %
19.11.2015 00:00 10,0 C 71 % 1018,5 hPa 0,0 l/m 4,1 km/h (1 Bft) SW 0,00 h 0,000 mm 0,0 UV-I 0 W/m 5,1 C 9,8 C 8,4 km/h (2 Bft) 99,28 %
19.11.2015 01:00 10,2 C 70 % 1018,5 hPa 0,0 l/m 7,3 km/h (2 Bft) SW 0,00 h 0,025 mm 0,0 UV-I 0 W/m 4,9 C 9,3 C 14,8 km/h (3 Bft) 99,16 %
19.11.2015 02:00 10,5 C 66 % 1018,6 hPa 0,0 l/m 9,1 km/h (2 Bft) S-SW 0,00 h 0,026 mm 0,0 UV-I 0 W/m 4,4 C 8,7 C 17,6 km/h (3 Bft) 99,23 %
19.11.2015 03:00 11,4 C 58 % 1018,5 hPa 0,0 l/m 12,1 km/h (2 Bft) S-SW 0,00 h 0,051 mm 0,0 UV-I 0 W/m 3,4 C 8,2 C 21,7 km/h (4 Bft) 98,99 %
19.11.2015 04:00 11,7 C 58 % 1018,4 hPa 0,0 l/m 10,0 km/h (2 Bft) SW 0,00 h 0,050 mm 0,0 UV-I 0 W/m 3,6 C 9,5 C 18,5 km/h (3 Bft) 99,36 %
19.11.2015 05:00 11,2 C 62 % 1017,9 hPa 0,0 l/m 9,5 km/h (2 Bft) SW 0,00 h 0,051 mm 0,0 UV-I 0 W/m 4,1 C 9,2 C 16,8 km/h (3 Bft) 99,15 %
19.11.2015 06:00 11,2 C 63 % 1017,5 hPa 0,0 l/m 7,0 km/h (2 Bft) SW 0,00 h 0,051 mm 0,0 UV-I 0 W/m 4,3 C 10,4 C 13,4 km/h (3 Bft) 99,02 %
19.11.2015 07:00 11,8 C 60 % 1016,9 hPa 0,0 l/m 6,9 km/h (2 Bft) SW 0,00 h 0,025 mm 0,0 UV-I 12 W/m 4,3 C 11,3 C 12,3 km/h (3 Bft) 98,54 %
19.11.2015 08:00 12,7 C 61 % 1017,3 hPa 0,0 l/m 8,5 km/h (2 Bft) SW 0,67 h 0,051 mm 0,0 UV-I 94 W/m 5,3 C 11,4 C 16,8 km/h (3 Bft) 98,61 %
19.11.2015 09:00 15,1 C 59 % 1017,5 hPa 0,0 l/m 12,2 km/h (2 Bft) W 1,00 h 0,102 mm 0,5 UV-I 185 W/m 7,3 C 12,4 C 23,2 km/h (4 Bft) 99,50 %
19.11.2015 10:00 15,6 C 57 % 1017,5 hPa 0,0 l/m 13,6 km/h (3 Bft) W-NW 0,75 h 0,152 mm 0,8 UV-I 242 W/m 7,1 C 12,4 C 24,9 km/h (4 Bft) 99,35 %
19.11.2015 11:00 16,0 C 56 % 1017,8 hPa 0,0 l/m 14,2 km/h (3 Bft) W-NW 1,00 h 0,203 mm 1,1 UV-I 346 W/m 7,3 C 12,8 C 27,2 km/h (4 Bft) 99,37 %
19.11.2015 12:00 16,2 C 54 % 1017,5 hPa 0,0 l/m 16,2 km/h (3 Bft) W 0,83 h 0,254 mm 0,9 UV-I 280 W/m 6,8 C 12,3 C 31,1 km/h (5 Bft) 99,65 %
19.11.2015 13:00 15,5 C 56 % 1016,8 hPa 0,0 l/m 12,1 km/h (2 Bft) W 0,00 h 0,229 mm 0,4 UV-I 107 W/m 6,8 C 12,9 C 23,2 km/h (4 Bft) 99,14 %
19.11.2015 14:00 15,2 C 62 % 1016,0 hPa 0,0 l/m 8,0 km/h (2 Bft) SW 0,25 h 0,127 mm 0,0 UV-I 103 W/m 8,0 C 14,3 C 17,3 km/h (3 Bft) 99,66 %
19.11.2015 15:00 15,6 C 62 % 1016,2 hPa 0,0 l/m 6,6 km/h (2 Bft) W-NW 0,58 h 0,102 mm 0,0 UV-I 73 W/m 8,2 C 15,2 C 14,5 km/h (3 Bft) 99,65 %
19.11.2015 16:00 14,2 C 61 % 1015,8 hPa 0,0 l/m 3,8 km/h (1 Bft) W 0,08 h 0,076 mm 0,0 UV-I 8 W/m 6,7 C 14,0 C 9,1 km/h (2 Bft) 99,14 %
19.11.2015 17:00 13,0 C 65 % 1015,6 hPa 0,0 l/m 2,1 km/h (1 Bft) SW 0,00 h 0,025 mm 0,0 UV-I 0 W/m 6,6 C 13,0 C 4,5 km/h (1 Bft) 99,42 %
19.11.2015 18:00 12,9 C 66 % 1015,6 hPa 0,0 l/m 1,3 km/h (1 Bft) W 0,00 h 0,026 mm 0,0 UV-I 0 W/m 6,7 C 12,9 C 3,6 km/h (1 Bft) 99,42 %
19.11.2015 19:00 12,7 C 69 % 1015,1 hPa 0,0 l/m 2,6 km/h (1 Bft) SW 0,00 h 0,000 mm 0,0 UV-I 0 W/m 7,1 C 12,7 C 5,7 km/h (1 Bft) 99,49 %
19.11.2015 20:00 13,0 C 69 % 1013,8 hPa 0,0 l/m 6,0 km/h (2 Bft) S-SW 0,00 h 0,025 mm 0,0 UV-I 0 W/m 7,4 C 12,9 C 12,2 km/h (2 Bft) 99,57 %
19.11.2015 21:00 13,2 C 69 % 1012,8 hPa 0,0 l/m 6,2 km/h (2 Bft) SW 0,00 h 0,025 mm 0,0 UV-I 0 W/m 7,8 C 12,8 C 13,6 km/h (3 Bft) 99,49 %
19.11.2015 22:00 13,9 C 65 % 1011,8 hPa 0,0 l/m 11,8 km/h (2 Bft) SW 0,00 h 0,026 mm 0,0 UV-I 0 W/m 7,4 C 11,1 C 22,9 km/h (4 Bft) 99,44 %
19.11.2015 23:00 15,1 C 60 % 1010,9 hPa 0,0 l/m 14,6 km/h (3 Bft) W-SW 0,00 h 0,051 mm 0,0 UV-I 0 W/m 7,3 C 11,5 C 28,3 km/h (4 Bft) 99,57 %
20.11.2015 00:00 15,3 C 58 % 1009,8 hPa 0,0 l/m 14,8 km/h (3 Bft) W-SW 0,00 h 0,000 mm 0,0 UV-I 0 W/m 7,2 C 11,6 C 29,1 km/h (5 Bft) 99,31 %
20.11.2015 01:00 16,6 C 57 % 1009,0 hPa 0,0 l/m 18,4 km/h (3 Bft) W 0,00 h 0,076 mm 0,0 UV-I 0 W/m 8,1 C 12,2 C 34,6 km/h (5 Bft) 99,29 %
20.11.2015 02:00 17,2 C 56 % 1008,9 hPa 0,0 l/m 18,9 km/h (3 Bft) W 0,00 h 0,102 mm 0,0 UV-I 0 W/m 8,3 C 12,9 C 34,9 km/h (5 Bft) 99,36 %
20.11.2015 03:00 17,2 C 58 % 1008,1 hPa 0,0 l/m 19,2 km/h (3 Bft) W 0,00 h 0,101 mm 0,0 UV-I 0 W/m 8,9 C 12,8 C 37,1 km/h (5 Bft) 98,93 %
20.11.2015 04:00 16,9 C 59 % 1007,4 hPa 0,0 l/m 18,6 km/h (3 Bft) SW 0,00 h 0,102 mm 0,0 UV-I 0 W/m 8,9 C 12,6 C 34,7 km/h (5 Bft) 99,30 %
20.11.2015 05:00 15,1 C 69 % 1007,9 hPa 0,4 l/m 13,9 km/h (3 Bft) W-NW 0,00 h 0,102 mm 0,0 UV-I 0 W/m 9,2 C 12,4 C 31,1 km/h (5 Bft) 99,49 %
20.11.2015 06:00 10,2 C 92 % 1009,4 hPa 1,8 l/m 4,3 km/h (1 Bft) W 0,00 h 0,050 mm 0,0 UV-I 0 W/m 8,9 C 10,2 C 12,4 km/h (3 Bft) 99,35 %
20.11.2015 07:00 9,5 C 93 % 1010,2 hPa 0,8 l/m 3,8 km/h (1 Bft) W 0,00 h 0,000 mm 0,0 UV-I 5 W/m 8,5 C 9,5 C 8,7 km/h (2 Bft) 98,90 %
20.11.2015 08:00 9,1 C 92 % 1010,8 hPa 1,0 l/m 3,1 km/h (1 Bft) W-SW 0,00 h 0,000 mm 0,0 UV-I 18 W/m 7,9 C 8,5 C 7,5 km/h (2 Bft) 97,89 %
20.11.2015 09:00 8,5 C 92 % 1010,7 hPa 0,4 l/m 9,3 km/h (2 Bft) W 0,00 h 0,026 mm 0,0 UV-I 48 W/m 7,3 C 6,4 C 16,0 km/h (3 Bft) 98,36 %
20.11.2015 10:00 8,2 C 94 % 1009,7 hPa 0,4 l/m 4,9 km/h (1 Bft) W 0,00 h 0,025 mm 0,0 UV-I 60 W/m 7,3 C 8,2 C 10,2 km/h (2 Bft) 98,88 %
20.11.2015 11:00 8,2 C 93 % 1008,3 hPa 0,2 l/m 7,2 km/h (2 Bft) W 0,00 h 0,026 mm 0,2 UV-I 89 W/m 7,1 C 7,5 C 14,5 km/h (3 Bft) 98,04 %
20.11.2015 12:00 8,1 C 93 % 1006,7 hPa 0,4 l/m 3,3 km/h (1 Bft) S-SW 0,00 h 0,050 mm 0,0 UV-I 80 W/m 6,9 C 8,1 C 7,5 km/h (2 Bft) 98,83 %
20.11.2015 13:00 8,2 C 93 % 1004,8 hPa 0,4 l/m 2,0 km/h (1 Bft) O-NO 0,00 h 0,026 mm 0,0 UV-I 66 W/m 7,2 C 8,2 C 4,9 km/h (1 Bft) 98,02 %
20.11.2015 14:00 8,2 C 95 % 1002,8 hPa 1,0 l/m 4,2 km/h (1 Bft) O-NO 0,00 h 0,025 mm 0,0 UV-I 32 W/m 7,4 C 8,2 C 6,8 km/h (2 Bft) 99,00 %
20.11.2015 15:00 8,1 C 96 % 1001,5 hPa 1,4 l/m 2,8 km/h (1 Bft) NO 0,00 h 0,026 mm 0,0 UV-I 11 W/m 7,6 C 8,1 C 5,3 km/h (1 Bft) 97,88 %
20.11.2015 16:00 8,1 C 97 % 1000,0 hPa 2,0 l/m 2,5 km/h (1 Bft) O-NO 0,00 h 0,000 mm 0,0 UV-I 0 W/m 7,7 C 8,1 C 5,0 km/h (1 Bft) 98,60 %
20.11.2015 17:00 8,2 C 97 % 998,0 hPa 2,2 l/m 6,7 km/h (2 Bft) NO 0,00 h 0,000 mm 0,0 UV-I 0 W/m 7,7 C 7,4 C 11,0 km/h (2 Bft) 98,15 %
20.11.2015 18:00 8,2 C 97 % 996,7 hPa 1,4 l/m 2,9 km/h (1 Bft) NW 0,00 h 0,000 mm 0,0 UV-I 0 W/m 7,7 C 8,2 C 7,5 km/h (2 Bft) 98,86 %
20.11.2015 19:00 8,0 C 98 % 996,2 hPa 0,4 l/m 0,6 km/h (0 Bft) NW 0,00 h 0,000 mm 0,0 UV-I 0 W/m 7,7 C 8,0 C 2,6 km/h (1 Bft) 97,56 %
20.11.2015 20:00 8,1 C 98 % 995,8 hPa 1,6 l/m 2,2 km/h (1 Bft) S-SW 0,00 h 0,000 mm 0,0 UV-I 0 W/m 7,8 C 8,1 C 4,1 km/h (1 Bft) 98,86 %
20.11.2015 21:00 8,2 C 98 % 995,9 hPa 2,8 l/m 7,3 km/h (2 Bft) W-SW 0,00 h 0,000 mm 0,0 UV-I 0 W/m 7,9 C 7,2 C 13,4 km/h (3 Bft) 97,91 %
20.11.2015 22:00 7,2 C 95 % 996,4 hPa 1,4 l/m 8,4 km/h (2 Bft) W 0,00 h 0,000 mm 0,0 UV-I 0 W/m 6,4 C 5,7 C 18,0 km/h (3 Bft) 99,48 %
20.11.2015 23:00 6,3 C 94 % 996,9 hPa 0,8 l/m 10,9 km/h (2 Bft) W 0,00 h 0,000 mm 0,0 UV-I 0 W/m 5,5 C 3,1 C 22,4 km/h (4 Bft) 97,50 %
21.11.2015 00:00 4,7 C 94 % 997,9 hPa 2,0 l/m 13,1 km/h (3 Bft) W-SW 0,00 h 0,000 mm 0,0 UV-I 0 W/m 3,8 C -0,2 C 23,7 km/h (4 Bft) 98,98 %
21.11.2015 01:00 4,1 C 94 % 998,5 hPa 1,4 l/m 14,7 km/h (3 Bft) W-SW 0,00 h 0,000 mm 0,0 UV-I 0 W/m 3,3 C -1,7 C 24,1 km/h (4 Bft) 97,60 %
21.11.2015 02:00 3,8 C 94 % 998,9 hPa 0,2 l/m 15,5 km/h (3 Bft) W-SW 0,00 h 0,000 mm 0,0 UV-I 0 W/m 2,9 C -2,7 C 25,6 km/h (4 Bft) 99,51 %
21.11.2015 03:00 3,6 C 95 % 998,5 hPa 0,0 l/m 12,5 km/h (3 Bft) W-SW 0,00 h 0,000 mm 0,0 UV-I 0 W/m 2,8 C -1,1 C 20,8 km/h (4 Bft) 97,79 %
21.11.2015 04:00 3,7 C 95 % 998,2 hPa 0,0 l/m 7,5 km/h (2 Bft) W-SW 0,00 h 0,000 mm 0,0 UV-I 0 W/m 2,9 C 2,3 C 13,2 km/h (3 Bft) 99,03 %
21.11.2015 05:00 3,8 C 95 % 998,1 hPa 0,2 l/m 7,4 km/h (2 Bft) SW 0,00 h 0,000 mm 0,0 UV-I 0 W/m 3,0 C 2,9 C 13,2 km/h (3 Bft) 97,64 %
21.11.2015 06:00 3,7 C 95 % 998,0 hPa 0,2 l/m 10,8 km/h (2 Bft) SW 0,00 h 0,000 mm 0,0 UV-I 0 W/m 2,9 C 0,1 C 18,1 km/h (3 Bft) 99,36 %
21.11.2015 07:00 3,6 C 95 % 998,1 hPa 0,2 l/m 10,0 km/h (2 Bft) SW 0,00 h 0,000 mm 0,0 UV-I 7 W/m 2,8 C 0,6 C 17,3 km/h (3 Bft) 98,03 %
21.11.2015 08:00 3,7 C 94 % 998,2 hPa 0,0 l/m 8,6 km/h (2 Bft) SW 0,00 h 0,000 mm 0,0 UV-I 18 W/m 2,8 C 1,8 C 16,1 km/h (3 Bft) 99,14 %
21.11.2015 09:00 3,8 C 93 % 997,4 hPa 0,0 l/m 8,1 km/h (2 Bft) SW 0,00 h 0,025 mm 0,0 UV-I 67 W/m 2,8 C 2,3 C 15,4 km/h (3 Bft) 97,65 %
21.11.2015 10:00 4,2 C 92 % 997,3 hPa 0,0 l/m 6,8 km/h (2 Bft) SW 0,00 h 0,026 mm 0,0 UV-I 40 W/m 3,0 C 3,6 C 12,8 km/h (3 Bft) 99,12 %
21.11.2015 11:00 4,6 C 91 % 996,8 hPa 0,0 l/m 6,9 km/h (2 Bft) W-SW 0,00 h 0,025 mm 0,0 UV-I 84 W/m 3,2 C 3,7 C 12,4 km/h (3 Bft) 97,59 %
21.11.2015 12:00 4,6 C 88 % 996,3 hPa 0,0 l/m 6,8 km/h (2 Bft) W-SW 0,00 h 0,051 mm 0,0 UV-I 68 W/m 2,7 C 4,0 C 13,2 km/h (3 Bft) 98,95 %
21.11.2015 13:00 4,6 C 88 % 996,2 hPa 0,0 l/m 5,4 km/h (1 Bft) W-SW 0,00 h 0,025 mm 0,0 UV-I 45 W/m 2,7 C 4,4 C 10,2 km/h (2 Bft) 97,41 %
21.11.2015 14:00 4,5 C 85 % 995,9 hPa 0,0 l/m 8,3 km/h (2 Bft) W-SW 0,00 h 0,026 mm 0,0 UV-I 70 W/m 2,2 C 2,7 C 14,3 km/h (3 Bft) 98,91 %
21.11.2015 15:00 4,2 C 85 % 996,1 hPa 0,0 l/m 9,4 km/h (2 Bft) W-SW 0,00 h 0,051 mm 0,0 UV-I 24 W/m 1,9 C 1,6 C 15,0 km/h (3 Bft) 97,44 %
21.11.2015 16:00 3,7 C 87 % 996,4 hPa 0,0 l/m 7,5 km/h (2 Bft) W 0,00 h 0,025 mm 0,0 UV-I 5 W/m 1,8 C 2,3 C 13,7 km/h (3 Bft) 98,98 %
21.11.2015 17:00 3,1 C 88 % 996,3 hPa 0,0 l/m 5,3 km/h (1 Bft) SW 0,00 h 0,000 mm 0,0 UV-I 0 W/m 1,2 C 2,9 C 8,8 km/h (2 Bft) 98,14 %
21.11.2015 18:00 2,6 C 90 % 996,3 hPa 0,0 l/m 6,8 km/h (2 Bft) S-SW 0,00 h 0,000 mm 0,0 UV-I 0 W/m 1,1 C 1,9 C 10,6 km/h (2 Bft) 99,02 %
21.11.2015 19:00 2,5 C 90 % 996,8 hPa 0,0 l/m 6,8 km/h (2 Bft) S-SW 0,00 h 0,000 mm 0,0 UV-I 0 W/m 0,9 C 2,1 C 10,8 km/h (2 Bft) 98,46 %
21.11.2015 20:00 2,0 C 91 % 996,6 hPa 0,0 l/m 4,2 km/h (1 Bft) SW 0,00 h 0,000 mm 0,0 UV-I 0 W/m 0,7 C 2,0 C 6,7 km/h (2 Bft) 98,40 %
21.11.2015 21:00 1,7 C 92 % 996,8 hPa 0,0 l/m 4,4 km/h (1 Bft) W-SW 0,00 h 0,000 mm 0,0 UV-I 0 W/m 0,5 C 1,7 C 7,1 km/h (2 Bft) 98,84 %
21.11.2015 22:00 1,3 C 93 % 997,2 hPa 0,0 l/m 4,8 km/h (1 Bft) SW 0,00 h 0,000 mm 0,0 UV-I 0 W/m 0,3 C 1,3 C 7,1 km/h (2 Bft) 98,43 %
21.11.2015 23:00 1,2 C 93 % 997,6 hPa 0,0 l/m 4,8 km/h (1 Bft) SW 0,00 h 0,000 mm 0,0 UV-I 0 W/m 0,2 C 1,2 C 8,7 km/h (2 Bft) 98,85 %
22.11.2015 00:00 1,6 C 92 % 998,1 hPa 0,0 l/m 7,4 km/h (2 Bft) SW 0,00 h 0,000 mm 0,0 UV-I 0 W/m 0,4 C 0,4 C 13,7 km/h (3 Bft) 97,74 %
22.11.2015 01:00 2,3 C 86 % 998,9 hPa 0,0 l/m 17,1 km/h (3 Bft) W-SW 0,00 h 0,000 mm 0,0 UV-I 0 W/m 0,2 C -5,2 C 29,7 km/h (5 Bft) 99,41 %
22.11.2015 02:00 1,9 C 85 % 999,6 hPa 0,0 l/m 15,6 km/h (3 Bft) W-SW 0,00 h 0,025 mm 0,0 UV-I 0 W/m -0,3 C -4,9 C 27,8 km/h (4 Bft) 97,43 %
22.11.2015 03:00 1,9 C 86 % 999,6 hPa 0,0 l/m 12,4 km/h (3 Bft) W-SW 0,00 h 0,026 mm 0,0 UV-I 0 W/m -0,2 C -2,9 C 20,8 km/h (4 Bft) 99,14 %
22.11.2015 04:00 1,7 C 87 % 999,6 hPa 0,0 l/m 10,7 km/h (2 Bft) SW 0,00 h 0,025 mm 0,0 UV-I 0 W/m -0,2 C -2,0 C 18,6 km/h (3 Bft) 97,51 %
22.11.2015 05:00 1,7 C 85 % 1000,0 hPa 0,0 l/m 11,9 km/h (2 Bft) W-SW 0,00 h 0,000 mm 0,0 UV-I 0 W/m -0,5 C -2,9 C 18,9 km/h (3 Bft) 99,05 %
22.11.2015 06:00 1,7 C 84 % 1000,5 hPa 0,0 l/m 11,1 km/h (2 Bft) W-SW 0,00 h 0,026 mm 0,0 UV-I 0 W/m -0,7 C -2,4 C 18,0 km/h (3 Bft) 97,77 %
22.11.2015 07:00 1,7 C 83 % 1000,9 hPa 0,0 l/m 10,5 km/h (2 Bft) W-SW 0,00 h 0,025 mm 0,0 UV-I 12 W/m -0,8 C -1,9 C 17,4 km/h (3 Bft) 99,22 %
22.11.2015 08:00 2,0 C 83 % 1001,6 hPa 0,0 l/m 10,2 km/h (2 Bft) W-SW 0,00 h 0,025 mm 0,0 UV-I 50 W/m -0,6 C -1,4 C 16,4 km/h (3 Bft) 97,97 %
22.11.2015 09:00 2,5 C 78 % 1002,3 hPa 0,0 l/m 16,7 km/h (3 Bft) SW 0,08 h 0,026 mm 0,0 UV-I 116 W/m -0,9 C -4,8 C 28,4 km/h (4 Bft) 99,16 %
22.11.2015 10:00 2,5 C 81 % 1003,5 hPa 0,0 l/m 15,8 km/h (3 Bft) SW 0,00 h 0,076 mm 0,0 UV-I 47 W/m -0,4 C -4,3 C 25,5 km/h (4 Bft) 98,22 %
22.11.2015 11:00 1,8 C 90 % 1003,8 hPa 0,2 l/m 15,6 km/h (3 Bft) W-SW 0,00 h 0,051 mm 0,0 UV-I 85 W/m 0,4 C -5,1 C 25,1 km/h (4 Bft) 99,29 %
22.11.2015 12:00 1,4 C 94 % 1004,6 hPa 0,4 l/m 13,9 km/h (3 Bft) W-SW 0,00 h 0,051 mm 0,0 UV-I 74 W/m 0,5 C -4,6 C 23,3 km/h (4 Bft) 97,87 %
22.11.2015 13:00 1,7 C 93 % 1005,2 hPa 0,0 l/m 13,2 km/h (3 Bft) W-SW 0,00 h 0,025 mm 0,0 UV-I 82 W/m 0,7 C -3,7 C 24,0 km/h (4 Bft) 99,43 %
22.11.2015 14:00 2,1 C 90 % 1006,0 hPa 0,0 l/m 13,7 km/h (3 Bft) W 0,00 h 0,025 mm 0,0 UV-I 73 W/m 0,6 C -3,7 C 22,9 km/h (4 Bft) 97,59 %
22.11.2015 15:00 2,2 C 89 % 1006,8 hPa 0,0 l/m 12,3 km/h (3 Bft) W-SW 0,00 h 0,026 mm 0,0 UV-I 29 W/m 0,5 C -2,6 C 20,8 km/h (4 Bft) 99,22 %
22.11.2015 16:00 1,8 C 91 % 1007,7 hPa 0,0 l/m 13,4 km/h (3 Bft) W-SW 0,00 h 0,025 mm 0,0 UV-I 7 W/m 0,5 C -3,8 C 23,1 km/h (4 Bft) 98,01 %
22.11.2015 17:00 1,4 C 90 % 1008,7 hPa 0,0 l/m 9,2 km/h (2 Bft) W-SW 0,00 h 0,000 mm 0,0 UV-I 0 W/m -0,1 C -1,3 C 16,9 km/h (3 Bft) 98,84 %
22.11.2015 18:00 0,8 C 89 % 1010,0 hPa 0,0 l/m 10,3 km/h (2 Bft) W-SW 0,00 h 0,000 mm 0,0 UV-I 0 W/m -0,8 C -2,8 C 17,4 km/h (3 Bft) 97,96 %
22.11.2015 19:00 0,8 C 87 % 1011,1 hPa 0,0 l/m 10,5 km/h (2 Bft) SW 0,00 h 0,000 mm 0,0 UV-I 0 W/m -1,2 C -2,9 C 17,7 km/h (3 Bft) 98,97 %
22.11.2015 20:00 0,9 C 88 % 1012,0 hPa 0,0 l/m 13,5 km/h (3 Bft) S-SW 0,00 h 0,000 mm 0,0 UV-I 0 W/m -0,9 C -4,9 C 22,9 km/h (4 Bft) 98,22 %
22.11.2015 21:00 1,1 C 85 % 1012,7 hPa 0,0 l/m 10,8 km/h (2 Bft) SW 0,00 h 0,026 mm 0,0 UV-I 0 W/m -1,1 C -2,8 C 18,4 km/h (3 Bft) 99,38 %
22.11.2015 22:00 0,8 C 85 % 1013,3 hPa 0,0 l/m 8,8 km/h (2 Bft) S-SW 0,00 h 0,025 mm 0,0 UV-I 0 W/m -1,4 C -1,5 C 14,6 km/h (3 Bft) 98,40 %
22.11.2015 23:00 0,3 C 86 % 1014,0 hPa 0,0 l/m 6,3 km/h (2 Bft) SW 0,00 h 0,000 mm 0,0 UV-I 0 W/m -1,7 C -0,2 C 10,1 km/h (2 Bft) 98,99 %
Min-Datum _ 22.11.15 19.11.15 20.11.15 - 16.11.15 - - - - - 22.11.15 22.11.15 16.11.15 16.11.15
_ Min-Zeit 23:50 12:45 20:45 - 14:50 - - - - - 23:50 01:10 14:50 19:30
Minimum _ -0,2 C 52 % 995,6 hPa - 0,0 km/h (0 Bft) - - - - - -1,9 C -7,8 C 0,0 km/h (0 Bft) 76,42 %
Max-Datum _ 20.11.15 20.11.15 19.11.15 20.11.15 22.11.15 - 16.11.15 18.11.15 16.11.15 17.11.15 16.11.15 16.11.15 18.11.15 16.11.15
_ Max-Zeit 02:50 18:20 02:45 21:40 01:10 - 08:45 12:00 11:45 10:25 13:55 14:10 11:00 00:20
Maximum _ 17,4 C 98 % 1018,8 hPa 2,8 l/m 23,1 km/h
W-SW (4 Bft)
- 0,08 h 0,305 mm 1,2 UV-I 426 W/m 10,4 C 16,5 C 49,9 km/h
W (6 Bft)
100,00 %
Durchschnitt _ 9,4 C 78 % 1010,2 hPa #26,2 l/m 7,8 km/h (2 Bft) W #19:45 h #7,290 mm 0,7 UV-I 107 W/m 5,5 C 7,7 C 14,7 km/h (3 Bft) 98,91 %